sensor_id;sensor_type;location;lat;lon;timestamp;P1;durP1;ratioP1;P2;durP2;ratioP2
8232;SDS011;4157;48.074;9.952;2022-11-14T00:00:54;18.17;;;16.27;;
8232;SDS011;4157;48.074;9.952;2022-11-14T00:03:40;18.40;;;16.48;;
8232;SDS011;4157;48.074;9.952;2022-11-14T00:06:27;25.05;;;17.23;;
8232;SDS011;4157;48.074;9.952;2022-11-14T00:09:13;17.67;;;15.63;;
8232;SDS011;4157;48.074;9.952;2022-11-14T00:11:59;18.75;;;16.20;;
8232;SDS011;4157;48.074;9.952;2022-11-14T00:14:47;19.73;;;16.50;;
8232;SDS011;4157;48.074;9.952;2022-11-14T00:17:35;20.20;;;16.55;;
8232;SDS011;4157;48.074;9.952;2022-11-14T00:20:21;17.92;;;15.98;;
8232;SDS011;4157;48.074;9.952;2022-11-14T00:23:07;17.45;;;15.48;;
8232;SDS011;4157;48.074;9.952;2022-11-14T00:25:53;18.40;;;16.20;;
8232;SDS011;4157;48.074;9.952;2022-11-14T00:28:40;19.33;;;17.27;;
8232;SDS011;4157;48.074;9.952;2022-11-14T00:31:28;17.50;;;15.65;;
8232;SDS011;4157;48.074;9.952;2022-11-14T00:34:14;17.40;;;15.60;;
8232;SDS011;4157;48.074;9.952;2022-11-14T00:37:01;19.33;;;15.18;;
8232;SDS011;4157;48.074;9.952;2022-11-14T00:39:47;21.02;;;16.58;;
8232;SDS011;4157;48.074;9.952;2022-11-14T00:42:33;18.75;;;16.00;;
8232;SDS011;4157;48.074;9.952;2022-11-14T00:45:20;17.10;;;14.25;;
8232;SDS011;4157;48.074;9.952;2022-11-14T00:48:08;18.40;;;16.50;;
8232;SDS011;4157;48.074;9.952;2022-11-14T00:50:54;16.05;;;14.45;;
8232;SDS011;4157;48.074;9.952;2022-11-14T00:53:40;17.52;;;15.30;;
8232;SDS011;4157;48.074;9.952;2022-11-14T00:56:27;16.88;;;15.07;;
8232;SDS011;4157;48.074;9.952;2022-11-14T00:59:13;17.48;;;15.40;;
8232;SDS011;4157;48.074;9.952;2022-11-14T01:02:00;17.10;;;15.30;;
8232;SDS011;4157;48.074;9.952;2022-11-14T01:04:47;21.02;;;17.73;;
8232;SDS011;4157;48.074;9.952;2022-11-14T01:07:33;19.20;;;17.10;;
8232;SDS011;4157;48.074;9.952;2022-11-14T01:10:20;18.88;;;16.90;;
8232;SDS011;4157;48.074;9.952;2022-11-14T01:13:06;18.20;;;15.80;;
8232;SDS011;4157;48.074;9.952;2022-11-14T01:15:53;21.02;;;17.20;;
8232;SDS011;4157;48.074;9.952;2022-11-14T01:18:39;19.08;;;17.08;;
8232;SDS011;4157;48.074;9.952;2022-11-14T01:21:27;21.08;;;18.05;;
8232;SDS011;4157;48.074;9.952;2022-11-14T01:24:14;21.02;;;17.88;;
8232;SDS011;4157;48.074;9.952;2022-11-14T01:27:00;20.00;;;17.73;;
8232;SDS011;4157;48.074;9.952;2022-11-14T01:29:47;20.60;;;17.70;;
8232;SDS011;4157;48.074;9.952;2022-11-14T01:32:33;20.45;;;18.25;;
8232;SDS011;4157;48.074;9.952;2022-11-14T01:35:19;19.80;;;17.70;;
8232;SDS011;4157;48.074;9.952;2022-11-14T01:38:09;21.27;;;16.98;;
8232;SDS011;4157;48.074;9.952;2022-11-14T01:40:56;21.33;;;18.67;;
8232;SDS011;4157;48.074;9.952;2022-11-14T01:43:42;19.38;;;17.30;;
8232;SDS011;4157;48.074;9.952;2022-11-14T01:46:30;18.38;;;16.40;;
8232;SDS011;4157;48.074;9.952;2022-11-14T01:49:18;20.10;;;17.08;;
8232;SDS011;4157;48.074;9.952;2022-11-14T01:52:06;22.83;;;19.85;;
8232;SDS011;4157;48.074;9.952;2022-11-14T01:54:56;21.27;;;18.35;;
8232;SDS011;4157;48.074;9.952;2022-11-14T01:57:45;21.55;;;19.25;;
8232;SDS011;4157;48.074;9.952;2022-11-14T02:00:31;21.17;;;18.48;;
8232;SDS011;4157;48.074;9.952;2022-11-14T02:03:18;19.48;;;17.38;;
8232;SDS011;4157;48.074;9.952;2022-11-14T02:06:05;18.83;;;16.83;;
8232;SDS011;4157;48.074;9.952;2022-11-14T02:08:52;21.38;;;18.95;;
8232;SDS011;4157;48.074;9.952;2022-11-14T02:11:40;20.42;;;18.20;;
8232;SDS011;4157;48.074;9.952;2022-11-14T02:14:27;19.92;;;17.17;;
8232;SDS011;4157;48.074;9.952;2022-11-14T02:17:14;22.80;;;19.38;;
8232;SDS011;4157;48.074;9.952;2022-11-14T02:20:07;19.55;;;17.45;;
8232;SDS011;4157;48.074;9.952;2022-11-14T02:22:59;19.73;;;17.63;;
8232;SDS011;4157;48.074;9.952;2022-11-14T02:25:45;20.17;;;17.98;;
8232;SDS011;4157;48.074;9.952;2022-11-14T02:28:32;18.60;;;16.60;;
8232;SDS011;4157;48.074;9.952;2022-11-14T02:31:18;18.65;;;16.75;;
8232;SDS011;4157;48.074;9.952;2022-11-14T02:34:04;18.88;;;16.80;;
8232;SDS011;4157;48.074;9.952;2022-11-14T02:36:52;17.60;;;15.75;;
8232;SDS011;4157;48.074;9.952;2022-11-14T02:39:38;20.88;;;16.42;;
8232;SDS011;4157;48.074;9.952;2022-11-14T02:42:25;26.85;;;17.65;;
8232;SDS011;4157;48.074;9.952;2022-11-14T02:45:11;18.60;;;16.60;;
8232;SDS011;4157;48.074;9.952;2022-11-14T02:47:59;17.42;;;15.50;;
8232;SDS011;4157;48.074;9.952;2022-11-14T02:50:46;19.40;;;16.90;;
8232;SDS011;4157;48.074;9.952;2022-11-14T02:53:34;20.40;;;16.70;;
8232;SDS011;4157;48.074;9.952;2022-11-14T02:56:20;19.17;;;17.00;;
8232;SDS011;4157;48.074;9.952;2022-11-14T02:59:07;18.50;;;15.73;;
8232;SDS011;4157;48.074;9.952;2022-11-14T03:01:53;19.05;;;16.80;;
8232;SDS011;4157;48.074;9.952;2022-11-14T03:04:39;19.08;;;16.85;;
8232;SDS011;4157;48.074;9.952;2022-11-14T03:07:25;19.27;;;17.08;;
8232;SDS011;4157;48.074;9.952;2022-11-14T03:10:13;19.80;;;16.05;;
8232;SDS011;4157;48.074;9.952;2022-11-14T03:12:59;21.52;;;17.50;;
8232;SDS011;4157;48.074;9.952;2022-11-14T03:15:46;25.08;;;19.15;;
8232;SDS011;4157;48.074;9.952;2022-11-14T03:18:32;23.58;;;17.33;;
8232;SDS011;4157;48.074;9.952;2022-11-14T03:21:19;23.88;;;17.40;;
8232;SDS011;4157;48.074;9.952;2022-11-14T03:24:05;25.13;;;19.23;;
8232;SDS011;4157;48.074;9.952;2022-11-14T03:26:53;25.00;;;18.40;;
8232;SDS011;4157;48.074;9.952;2022-11-14T03:29:39;23.52;;;18.65;;
8232;SDS011;4157;48.074;9.952;2022-11-14T03:32:25;25.67;;;19.55;;
8232;SDS011;4157;48.074;9.952;2022-11-14T03:35:12;25.88;;;19.38;;
8232;SDS011;4157;48.074;9.952;2022-11-14T03:37:58;21.73;;;17.70;;
8232;SDS011;4157;48.074;9.952;2022-11-14T03:40:44;21.20;;;17.27;;
8232;SDS011;4157;48.074;9.952;2022-11-14T03:43:32;20.30;;;16.77;;
8232;SDS011;4157;48.074;9.952;2022-11-14T03:46:19;16.00;;;13.90;;
8232;SDS011;4157;48.074;9.952;2022-11-14T03:49:05;18.80;;;15.30;;
8232;SDS011;4157;48.074;9.952;2022-11-14T03:51:52;17.15;;;14.50;;
8232;SDS011;4157;48.074;9.952;2022-11-14T03:54:38;19.25;;;16.45;;
8232;SDS011;4157;48.074;9.952;2022-11-14T03:57:24;17.52;;;15.23;;
8232;SDS011;4157;48.074;9.952;2022-11-14T04:00:12;17.63;;;15.48;;
8232;SDS011;4157;48.074;9.952;2022-11-14T04:02:59;19.13;;;15.27;;
8232;SDS011;4157;48.074;9.952;2022-11-14T04:05:45;17.25;;;14.77;;
8232;SDS011;4157;48.074;9.952;2022-11-14T04:08:32;17.42;;;15.20;;
8232;SDS011;4157;48.074;9.952;2022-11-14T04:11:18;17.08;;;14.68;;
8232;SDS011;4157;48.074;9.952;2022-11-14T04:14:05;17.75;;;14.68;;
8232;SDS011;4157;48.074;9.952;2022-11-14T04:16:52;18.60;;;15.10;;
8232;SDS011;4157;48.074;9.952;2022-11-14T04:19:39;17.23;;;14.95;;
8232;SDS011;4157;48.074;9.952;2022-11-14T04:22:25;15.55;;;13.77;;
8232;SDS011;4157;48.074;9.952;2022-11-14T04:25:11;18.55;;;16.48;;
8232;SDS011;4157;48.074;9.952;2022-11-14T04:27:57;16.13;;;14.38;;
8232;SDS011;4157;48.074;9.952;2022-11-14T04:30:44;15.50;;;13.88;;
8232;SDS011;4157;48.074;9.952;2022-11-14T04:33:32;15.35;;;13.13;;
8232;SDS011;4157;48.074;9.952;2022-11-14T04:36:18;16.05;;;14.40;;
8232;SDS011;4157;48.074;9.952;2022-11-14T04:39:04;16.13;;;14.25;;
8232;SDS011;4157;48.074;9.952;2022-11-14T04:41:50;15.57;;;13.32;;
8232;SDS011;4157;48.074;9.952;2022-11-14T04:44:36;17.02;;;15.32;;
8232;SDS011;4157;48.074;9.952;2022-11-14T04:47:23;15.18;;;13.50;;
8232;SDS011;4157;48.074;9.952;2022-11-14T04:50:10;17.23;;;15.00;;
8232;SDS011;4157;48.074;9.952;2022-11-14T04:52:57;15.60;;;13.75;;
8232;SDS011;4157;48.074;9.952;2022-11-14T04:55:43;15.25;;;13.52;;
8232;SDS011;4157;48.074;9.952;2022-11-14T04:58:29;14.40;;;12.95;;
8232;SDS011;4157;48.074;9.952;2022-11-14T05:01:16;16.35;;;14.50;;
8232;SDS011;4157;48.074;9.952;2022-11-14T05:04:02;15.85;;;13.50;;
8232;SDS011;4157;48.074;9.952;2022-11-14T05:06:49;14.98;;;13.38;;
8232;SDS011;4157;48.074;9.952;2022-11-14T05:09:36;16.08;;;14.38;;
8232;SDS011;4157;48.074;9.952;2022-11-14T05:12:22;15.63;;;13.93;;
8232;SDS011;4157;48.074;9.952;2022-11-14T05:15:08;14.77;;;13.27;;
8232;SDS011;4157;48.074;9.952;2022-11-14T05:17:55;15.85;;;13.93;;
8232;SDS011;4157;48.074;9.952;2022-11-14T05:20:42;15.75;;;14.15;;
8232;SDS011;4157;48.074;9.952;2022-11-14T05:23:29;16.45;;;14.73;;
8232;SDS011;4157;48.074;9.952;2022-11-14T05:26:16;15.50;;;13.50;;
8232;SDS011;4157;48.074;9.952;2022-11-14T05:29:03;15.55;;;13.82;;
8232;SDS011;4157;48.074;9.952;2022-11-14T05:31:49;21.83;;;18.48;;
8232;SDS011;4157;48.074;9.952;2022-11-14T05:34:35;18.08;;;15.55;;
8232;SDS011;4157;48.074;9.952;2022-11-14T05:37:21;16.13;;;14.00;;
8232;SDS011;4157;48.074;9.952;2022-11-14T05:40:10;15.73;;;13.52;;
8232;SDS011;4157;48.074;9.952;2022-11-14T05:42:56;15.27;;;13.68;;
8232;SDS011;4157;48.074;9.952;2022-11-14T05:45:42;15.57;;;13.93;;
8232;SDS011;4157;48.074;9.952;2022-11-14T05:48:29;17.27;;;15.05;;
8232;SDS011;4157;48.074;9.952;2022-11-14T05:51:15;16.67;;;14.35;;
8232;SDS011;4157;48.074;9.952;2022-11-14T05:54:02;18.30;;;14.68;;
8232;SDS011;4157;48.074;9.952;2022-11-14T05:56:49;16.27;;;14.18;;
8232;SDS011;4157;48.074;9.952;2022-11-14T05:59:35;16.67;;;14.73;;
8232;SDS011;4157;48.074;9.952;2022-11-14T06:02:22;17.13;;;14.85;;
8232;SDS011;4157;48.074;9.952;2022-11-14T06:05:08;18.05;;;15.60;;
8232;SDS011;4157;48.074;9.952;2022-11-14T06:07:55;17.98;;;14.90;;
8232;SDS011;4157;48.074;9.952;2022-11-14T06:10:41;16.58;;;14.38;;
8232;SDS011;4157;48.074;9.952;2022-11-14T06:13:29;19.05;;;14.73;;
8232;SDS011;4157;48.074;9.952;2022-11-14T06:16:16;18.08;;;15.23;;
8232;SDS011;4157;48.074;9.952;2022-11-14T06:19:03;15.48;;;13.77;;
8232;SDS011;4157;48.074;9.952;2022-11-14T06:21:49;16.90;;;14.88;;
8232;SDS011;4157;48.074;9.952;2022-11-14T06:24:35;16.52;;;14.70;;
8232;SDS011;4157;48.074;9.952;2022-11-14T06:27:21;16.17;;;14.48;;
8232;SDS011;4157;48.074;9.952;2022-11-14T06:30:10;20.52;;;17.05;;
8232;SDS011;4157;48.074;9.952;2022-11-14T06:32:56;20.27;;;17.98;;
8232;SDS011;4157;48.074;9.952;2022-11-14T06:35:43;19.48;;;16.48;;
8232;SDS011;4157;48.074;9.952;2022-11-14T06:38:30;18.67;;;16.42;;
8232;SDS011;4157;48.074;9.952;2022-11-14T06:41:17;19.02;;;16.08;;
8232;SDS011;4157;48.074;9.952;2022-11-14T06:44:05;18.80;;;16.27;;
8232;SDS011;4157;48.074;9.952;2022-11-14T06:46:53;17.88;;;15.98;;
8232;SDS011;4157;48.074;9.952;2022-11-14T06:49:39;20.00;;;16.90;;
8232;SDS011;4157;48.074;9.952;2022-11-14T06:52:26;20.25;;;17.88;;
8232;SDS011;4157;48.074;9.952;2022-11-14T06:55:12;20.98;;;16.10;;
8232;SDS011;4157;48.074;9.952;2022-11-14T06:57:58;19.55;;;17.45;;
8232;SDS011;4157;48.074;9.952;2022-11-14T07:00:44;20.73;;;18.52;;
8232;SDS011;4157;48.074;9.952;2022-11-14T07:03:32;19.42;;;17.10;;
8232;SDS011;4157;48.074;9.952;2022-11-14T07:06:19;18.10;;;15.63;;
8232;SDS011;4157;48.074;9.952;2022-11-14T07:09:06;17.90;;;14.77;;
8232;SDS011;4157;48.074;9.952;2022-11-14T07:11:52;19.42;;;15.82;;
8232;SDS011;4157;48.074;9.952;2022-11-14T07:14:38;18.88;;;16.23;;
8232;SDS011;4157;48.074;9.952;2022-11-14T07:17:25;17.02;;;14.80;;
8232;SDS011;4157;48.074;9.952;2022-11-14T07:20:13;18.60;;;15.45;;
8232;SDS011;4157;48.074;9.952;2022-11-14T07:23:01;20.85;;;16.40;;
8232;SDS011;4157;48.074;9.952;2022-11-14T07:25:48;19.20;;;16.58;;
8232;SDS011;4157;48.074;9.952;2022-11-14T07:28:34;19.67;;;15.75;;
8232;SDS011;4157;48.074;9.952;2022-11-14T07:31:21;18.67;;;16.17;;
8232;SDS011;4157;48.074;9.952;2022-11-14T07:34:07;17.38;;;15.40;;
8232;SDS011;4157;48.074;9.952;2022-11-14T07:36:55;18.73;;;15.13;;
8232;SDS011;4157;48.074;9.952;2022-11-14T07:39:42;20.08;;;15.57;;
8232;SDS011;4157;48.074;9.952;2022-11-14T07:42:29;19.38;;;15.13;;
8232;SDS011;4157;48.074;9.952;2022-11-14T07:45:15;18.55;;;15.88;;
8232;SDS011;4157;48.074;9.952;2022-11-14T07:48:03;19.13;;;15.88;;
8232;SDS011;4157;48.074;9.952;2022-11-14T07:50:49;27.27;;;17.08;;
8232;SDS011;4157;48.074;9.952;2022-11-14T07:53:37;22.50;;;16.13;;
8232;SDS011;4157;48.074;9.952;2022-11-14T07:56:23;17.42;;;14.60;;
8232;SDS011;4157;48.074;9.952;2022-11-14T07:59:10;20.50;;;16.42;;
8232;SDS011;4157;48.074;9.952;2022-11-14T08:01:56;18.92;;;15.85;;
8232;SDS011;4157;48.074;9.952;2022-11-14T08:04:42;17.30;;;15.45;;
8232;SDS011;4157;48.074;9.952;2022-11-14T08:07:29;19.88;;;16.77;;
8232;SDS011;4157;48.074;9.952;2022-11-14T08:10:16;20.20;;;15.73;;
8232;SDS011;4157;48.074;9.952;2022-11-14T08:13:03;17.67;;;15.32;;
8232;SDS011;4157;48.074;9.952;2022-11-14T08:15:51;20.90;;;16.58;;
8232;SDS011;4157;48.074;9.952;2022-11-14T08:18:37;23.42;;;18.27;;
8232;SDS011;4157;48.074;9.952;2022-11-14T08:21:23;21.13;;;16.58;;
8232;SDS011;4157;48.074;9.952;2022-11-14T08:24:10;17.67;;;13.98;;
8232;SDS011;4157;48.074;9.952;2022-11-14T08:26:57;21.40;;;16.88;;
8232;SDS011;4157;48.074;9.952;2022-11-14T08:29:43;25.92;;;19.60;;
8232;SDS011;4157;48.074;9.952;2022-11-14T08:32:29;18.77;;;15.13;;
8232;SDS011;4157;48.074;9.952;2022-11-14T08:35:16;17.55;;;12.77;;
8232;SDS011;4157;48.074;9.952;2022-11-14T08:38:02;16.75;;;13.60;;
8232;SDS011;4157;48.074;9.952;2022-11-14T08:40:48;14.95;;;10.35;;
8232;SDS011;4157;48.074;9.952;2022-11-14T08:43:36;14.63;;;9.82;;
8232;SDS011;4157;48.074;9.952;2022-11-14T08:46:22;13.75;;;11.43;;
8232;SDS011;4157;48.074;9.952;2022-11-14T08:49:08;11.52;;;10.10;;
8232;SDS011;4157;48.074;9.952;2022-11-14T08:51:54;11.70;;;9.77;;
8232;SDS011;4157;48.074;9.952;2022-11-14T08:54:41;11.60;;;9.95;;
8232;SDS011;4157;48.074;9.952;2022-11-14T08:57:27;12.30;;;9.82;;
8232;SDS011;4157;48.074;9.952;2022-11-14T09:00:15;9.40;;;8.38;;
8232;SDS011;4157;48.074;9.952;2022-11-14T09:03:05;12.25;;;8.70;;
8232;SDS011;4157;48.074;9.952;2022-11-14T09:05:52;9.80;;;7.35;;
8232;SDS011;4157;48.074;9.952;2022-11-14T09:08:38;9.77;;;7.55;;
8232;SDS011;4157;48.074;9.952;2022-11-14T09:11:25;9.82;;;7.38;;
8232;SDS011;4157;48.074;9.952;2022-11-14T09:14:11;10.85;;;7.68;;
8232;SDS011;4157;48.074;9.952;2022-11-14T09:16:59;8.98;;;7.10;;
8232;SDS011;4157;48.074;9.952;2022-11-14T09:19:45;9.48;;;7.50;;
8232;SDS011;4157;48.074;9.952;2022-11-14T09:22:32;9.98;;;7.47;;
8232;SDS011;4157;48.074;9.952;2022-11-14T09:25:18;8.95;;;7.88;;
8232;SDS011;4157;48.074;9.952;2022-11-14T09:28:05;10.27;;;7.43;;
8232;SDS011;4157;48.074;9.952;2022-11-14T09:30:52;9.88;;;7.55;;
8232;SDS011;4157;48.074;9.952;2022-11-14T09:33:40;11.40;;;7.60;;
8232;SDS011;4157;48.074;9.952;2022-11-14T09:36:26;11.00;;;7.80;;
8232;SDS011;4157;48.074;9.952;2022-11-14T09:39:13;11.27;;;8.02;;
8232;SDS011;4157;48.074;9.952;2022-11-14T09:42:03;10.05;;;8.15;;
8232;SDS011;4157;48.074;9.952;2022-11-14T09:44:54;11.30;;;8.40;;
8232;SDS011;4157;48.074;9.952;2022-11-14T09:47:42;10.80;;;7.88;;
8232;SDS011;4157;48.074;9.952;2022-11-14T09:50:31;10.10;;;7.07;;
8232;SDS011;4157;48.074;9.952;2022-11-14T09:53:20;10.07;;;6.10;;
8232;SDS011;4157;48.074;9.952;2022-11-14T09:56:08;8.02;;;6.35;;
8232;SDS011;4157;48.074;9.952;2022-11-14T09:58:56;9.95;;;6.57;;
8232;SDS011;4157;48.074;9.952;2022-11-14T10:01:44;13.45;;;5.63;;
8232;SDS011;4157;48.074;9.952;2022-11-14T10:04:38;14.35;;;6.97;;
8232;SDS011;4157;48.074;9.952;2022-11-14T10:07:32;8.95;;;5.38;;
8232;SDS011;4157;48.074;9.952;2022-11-14T10:10:26;6.97;;;5.45;;
8232;SDS011;4157;48.074;9.952;2022-11-14T10:13:21;7.28;;;4.13;;
8232;SDS011;4157;48.074;9.952;2022-11-14T10:16:10;6.13;;;4.32;;
8232;SDS011;4157;48.074;9.952;2022-11-14T10:19:04;6.03;;;4.28;;
8232;SDS011;4157;48.074;9.952;2022-11-14T10:22:00;7.60;;;5.22;;
8232;SDS011;4157;48.074;9.952;2022-11-14T10:24:53;7.88;;;4.85;;
8232;SDS011;4157;48.074;9.952;2022-11-14T10:27:44;7.15;;;4.88;;
8232;SDS011;4157;48.074;9.952;2022-11-14T10:30:36;5.07;;;3.65;;
8232;SDS011;4157;48.074;9.952;2022-11-14T10:33:27;4.97;;;3.60;;
8232;SDS011;4157;48.074;9.952;2022-11-14T10:36:20;6.47;;;4.13;;
8232;SDS011;4157;48.074;9.952;2022-11-14T10:39:10;6.10;;;3.97;;
8232;SDS011;4157;48.074;9.952;2022-11-14T10:42:01;6.57;;;4.32;;
8232;SDS011;4157;48.074;9.952;2022-11-14T10:44:49;5.60;;;3.72;;
8232;SDS011;4157;48.074;9.952;2022-11-14T10:47:37;8.27;;;3.90;;
8232;SDS011;4157;48.074;9.952;2022-11-14T10:50:26;4.97;;;3.25;;
8232;SDS011;4157;48.074;9.952;2022-11-14T10:53:15;5.03;;;3.33;;
8232;SDS011;4157;48.074;9.952;2022-11-14T10:56:04;4.75;;;3.03;;
8232;SDS011;4157;48.074;9.952;2022-11-14T10:58:52;6.38;;;3.80;;
8232;SDS011;4157;48.074;9.952;2022-11-14T11:01:39;5.97;;;3.58;;
8232;SDS011;4157;48.074;9.952;2022-11-14T11:04:26;5.03;;;2.70;;
8232;SDS011;4157;48.074;9.952;2022-11-14T11:07:21;6.15;;;3.58;;
8232;SDS011;4157;48.074;9.952;2022-11-14T11:10:25;4.70;;;2.60;;
8232;SDS011;4157;48.074;9.952;2022-11-14T11:13:30;6.15;;;3.60;;
8232;SDS011;4157;48.074;9.952;2022-11-14T11:16:20;6.18;;;3.10;;
8232;SDS011;4157;48.074;9.952;2022-11-14T11:19:12;5.70;;;2.95;;
8232;SDS011;4157;48.074;9.952;2022-11-14T11:21:59;3.38;;;1.80;;
8232;SDS011;4157;48.074;9.952;2022-11-14T11:24:45;5.28;;;1.80;;
8232;SDS011;4157;48.074;9.952;2022-11-14T11:27:31;4.53;;;2.17;;
8232;SDS011;4157;48.074;9.952;2022-11-14T11:30:18;2.40;;;1.25;;
8232;SDS011;4157;48.074;9.952;2022-11-14T11:33:21;1.63;;;1.00;;
8232;SDS011;4157;48.074;9.952;2022-11-14T11:36:10;2.95;;;1.10;;
8232;SDS011;4157;48.074;9.952;2022-11-14T11:38:56;4.00;;;1.02;;
8232;SDS011;4157;48.074;9.952;2022-11-14T11:41:44;2.20;;;1.20;;
8232;SDS011;4157;48.074;9.952;2022-11-14T11:44:32;2.75;;;1.40;;
8232;SDS011;4157;48.074;9.952;2022-11-14T11:47:20;2.58;;;1.10;;
8232;SDS011;4157;48.074;9.952;2022-11-14T11:50:11;2.83;;;1.38;;
8232;SDS011;4157;48.074;9.952;2022-11-14T11:53:01;2.85;;;1.35;;
8232;SDS011;4157;48.074;9.952;2022-11-14T11:55:52;3.45;;;1.20;;
8232;SDS011;4157;48.074;9.952;2022-11-14T11:58:41;4.20;;;1.98;;
8232;SDS011;4157;48.074;9.952;2022-11-14T12:01:28;2.47;;;1.10;;
8232;SDS011;4157;48.074;9.952;2022-11-14T12:04:15;2.45;;;1.30;;
8232;SDS011;4157;48.074;9.952;2022-11-14T12:07:09;1.83;;;0.90;;
8232;SDS011;4157;48.074;9.952;2022-11-14T12:09:57;4.65;;;1.08;;
8232;SDS011;4157;48.074;9.952;2022-11-14T12:12:52;2.88;;;0.80;;
8232;SDS011;4157;48.074;9.952;2022-11-14T12:15:44;2.28;;;1.02;;
8232;SDS011;4157;48.074;9.952;2022-11-14T12:18:45;3.13;;;1.08;;
8232;SDS011;4157;48.074;9.952;2022-11-14T12:21:36;3.47;;;1.58;;
8232;SDS011;4157;48.074;9.952;2022-11-14T12:24:36;2.72;;;1.17;;
8232;SDS011;4157;48.074;9.952;2022-11-14T12:27:39;1.73;;;0.80;;
8232;SDS011;4157;48.074;9.952;2022-11-14T12:30:27;3.50;;;1.17;;
8232;SDS011;4157;48.074;9.952;2022-11-14T12:33:15;2.33;;;1.05;;
8232;SDS011;4157;48.074;9.952;2022-11-14T12:36:05;4.82;;;1.17;;
8232;SDS011;4157;48.074;9.952;2022-11-14T12:38:53;2.13;;;0.90;;
8232;SDS011;4157;48.074;9.952;2022-11-14T12:41:40;3.92;;;1.10;;
8232;SDS011;4157;48.074;9.952;2022-11-14T12:44:31;2.28;;;1.13;;
8232;SDS011;4157;48.074;9.952;2022-11-14T12:47:19;3.13;;;1.08;;
8232;SDS011;4157;48.074;9.952;2022-11-14T12:50:30;3.08;;;1.45;;
8232;SDS011;4157;48.074;9.952;2022-11-14T12:53:38;3.90;;;1.27;;
8232;SDS011;4157;48.074;9.952;2022-11-14T13:02:35;6.25;;;2.13;;
8232;SDS011;4157;48.074;9.952;2022-11-14T13:05:33;6.60;;;2.80;;
8232;SDS011;4157;48.074;9.952;2022-11-14T13:08:30;7.25;;;3.05;;
8232;SDS011;4157;48.074;9.952;2022-11-14T13:11:32;3.90;;;1.90;;
8232;SDS011;4157;48.074;9.952;2022-11-14T13:14:46;3.05;;;1.40;;
8232;SDS011;4157;48.074;9.952;2022-11-14T13:18:08;5.07;;;1.50;;
8232;SDS011;4157;48.074;9.952;2022-11-14T13:21:17;4.15;;;1.17;;
8232;SDS011;4157;48.074;9.952;2022-11-14T13:24:22;3.17;;;1.27;;
8232;SDS011;4157;48.074;9.952;2022-11-14T13:30:18;2.53;;;1.20;;
8232;SDS011;4157;48.074;9.952;2022-11-14T13:33:42;3.22;;;1.33;;
8232;SDS011;4157;48.074;9.952;2022-11-14T13:36:29;5.80;;;1.25;;
8232;SDS011;4157;48.074;9.952;2022-11-14T13:39:21;2.17;;;1.13;;
8232;SDS011;4157;48.074;9.952;2022-11-14T13:42:14;2.22;;;1.27;;
8232;SDS011;4157;48.074;9.952;2022-11-14T13:45:15;2.53;;;1.20;;
8232;SDS011;4157;48.074;9.952;2022-11-14T13:48:19;2.50;;;1.10;;
8232;SDS011;4157;48.074;9.952;2022-11-14T13:51:10;3.72;;;1.20;;
8232;SDS011;4157;48.074;9.952;2022-11-14T13:53:56;2.60;;;1.10;;
8232;SDS011;4157;48.074;9.952;2022-11-14T13:56:53;4.90;;;1.17;;
8232;SDS011;4157;48.074;9.952;2022-11-14T13:59:43;3.35;;;1.30;;
8232;SDS011;4157;48.074;9.952;2022-11-14T14:02:42;4.15;;;1.48;;
8232;SDS011;4157;48.074;9.952;2022-11-14T14:05:33;3.70;;;1.17;;
8232;SDS011;4157;48.074;9.952;2022-11-14T14:08:30;4.15;;;0.95;;
8232;SDS011;4157;48.074;9.952;2022-11-14T14:11:25;3.10;;;1.30;;
8232;SDS011;4157;48.074;9.952;2022-11-14T14:14:17;2.88;;;1.23;;
8232;SDS011;4157;48.074;9.952;2022-11-14T14:17:08;2.88;;;1.30;;
8232;SDS011;4157;48.074;9.952;2022-11-14T14:19:58;5.47;;;1.98;;
8232;SDS011;4157;48.074;9.952;2022-11-14T14:22:48;2.55;;;1.40;;
8232;SDS011;4157;48.074;9.952;2022-11-14T14:25:39;2.65;;;1.33;;
8232;SDS011;4157;48.074;9.952;2022-11-14T14:28:30;3.92;;;1.70;;
8232;SDS011;4157;48.074;9.952;2022-11-14T14:31:18;4.60;;;2.10;;
8232;SDS011;4157;48.074;9.952;2022-11-14T14:34:19;5.30;;;2.15;;
8232;SDS011;4157;48.074;9.952;2022-11-14T14:37:12;6.80;;;2.58;;
8232;SDS011;4157;48.074;9.952;2022-11-14T14:40:00;4.13;;;1.87;;
8232;SDS011;4157;48.074;9.952;2022-11-14T14:42:48;6.20;;;2.50;;
8232;SDS011;4157;48.074;9.952;2022-11-14T14:45:35;4.93;;;1.95;;
8232;SDS011;4157;48.074;9.952;2022-11-14T14:48:23;4.82;;;2.22;;
8232;SDS011;4157;48.074;9.952;2022-11-14T14:51:12;5.60;;;1.83;;
8232;SDS011;4157;48.074;9.952;2022-11-14T14:53:58;6.45;;;2.55;;
8232;SDS011;4157;48.074;9.952;2022-11-14T14:56:51;4.03;;;1.80;;
8232;SDS011;4157;48.074;9.952;2022-11-14T14:59:39;3.25;;;1.60;;
8232;SDS011;4157;48.074;9.952;2022-11-14T15:02:26;4.03;;;1.85;;
8232;SDS011;4157;48.074;9.952;2022-11-14T15:05:19;3.92;;;1.70;;
8232;SDS011;4157;48.074;9.952;2022-11-14T15:08:10;3.40;;;1.73;;
8232;SDS011;4157;48.074;9.952;2022-11-14T15:10:57;3.45;;;1.50;;
8232;SDS011;4157;48.074;9.952;2022-11-14T15:13:44;5.28;;;1.67;;
8232;SDS011;4157;48.074;9.952;2022-11-14T15:16:32;2.38;;;1.20;;
8232;SDS011;4157;48.074;9.952;2022-11-14T15:19:19;4.15;;;1.65;;
8232;SDS011;4157;48.074;9.952;2022-11-14T15:22:19;3.17;;;1.40;;
8232;SDS011;4157;48.074;9.952;2022-11-14T15:25:16;2.70;;;1.10;;
8232;SDS011;4157;48.074;9.952;2022-11-14T15:28:11;3.00;;;1.30;;
8232;SDS011;4157;48.074;9.952;2022-11-14T15:30:59;3.33;;;1.30;;
8232;SDS011;4157;48.074;9.952;2022-11-14T15:34:00;3.08;;;1.20;;
8232;SDS011;4157;48.074;9.952;2022-11-14T15:37:05;3.03;;;1.38;;
8232;SDS011;4157;48.074;9.952;2022-11-14T15:39:52;5.45;;;2.60;;
8232;SDS011;4157;48.074;9.952;2022-11-14T15:42:38;4.47;;;1.90;;
8232;SDS011;4157;48.074;9.952;2022-11-14T15:45:25;4.28;;;1.60;;
8232;SDS011;4157;48.074;9.952;2022-11-14T15:48:12;3.75;;;1.20;;
8232;SDS011;4157;48.074;9.952;2022-11-14T15:51:01;3.67;;;1.50;;
8232;SDS011;4157;48.074;9.952;2022-11-14T15:53:47;2.47;;;1.10;;
8232;SDS011;4157;48.074;9.952;2022-11-14T15:56:36;2.25;;;1.15;;
8232;SDS011;4157;48.074;9.952;2022-11-14T15:59:22;2.67;;;1.30;;
8232;SDS011;4157;48.074;9.952;2022-11-14T16:02:10;3.85;;;1.48;;
8232;SDS011;4157;48.074;9.952;2022-11-14T16:04:57;16.23;;;2.42;;
8232;SDS011;4157;48.074;9.952;2022-11-14T16:07:45;4.93;;;2.30;;
8232;SDS011;4157;48.074;9.952;2022-11-14T16:10:32;12.88;;;9.75;;
8232;SDS011;4157;48.074;9.952;2022-11-14T16:13:18;4.35;;;1.90;;
8232;SDS011;4157;48.074;9.952;2022-11-14T16:16:05;5.13;;;1.65;;
8232;SDS011;4157;48.074;9.952;2022-11-14T16:18:51;3.58;;;1.50;;
8232;SDS011;4157;48.074;9.952;2022-11-14T16:21:37;3.00;;;1.50;;
8232;SDS011;4157;48.074;9.952;2022-11-14T16:24:25;4.03;;;1.70;;
8232;SDS011;4157;48.074;9.952;2022-11-14T16:27:12;6.30;;;2.10;;
8232;SDS011;4157;48.074;9.952;2022-11-14T16:29:58;5.40;;;2.60;;
8232;SDS011;4157;48.074;9.952;2022-11-14T16:32:45;3.83;;;2.20;;
8232;SDS011;4157;48.074;9.952;2022-11-14T16:35:32;5.35;;;2.15;;
8232;SDS011;4157;48.074;9.952;2022-11-14T16:38:19;3.38;;;1.42;;
8232;SDS011;4157;48.074;9.952;2022-11-14T16:41:07;10.57;;;5.90;;
8232;SDS011;4157;48.074;9.952;2022-11-14T16:43:54;5.75;;;3.60;;
8232;SDS011;4157;48.074;9.952;2022-11-14T16:46:40;8.43;;;3.50;;
8232;SDS011;4157;48.074;9.952;2022-11-14T16:49:26;27.23;;;19.23;;
8232;SDS011;4157;48.074;9.952;2022-11-14T16:52:13;16.50;;;12.70;;
8232;SDS011;4157;48.074;9.952;2022-11-14T16:55:00;12.30;;;7.50;;
8232;SDS011;4157;48.074;9.952;2022-11-14T16:57:47;8.98;;;4.65;;
8232;SDS011;4157;48.074;9.952;2022-11-14T17:00:34;7.75;;;3.10;;
8232;SDS011;4157;48.074;9.952;2022-11-14T17:03:20;8.48;;;3.33;;
8232;SDS011;4157;48.074;9.952;2022-11-14T17:06:07;7.63;;;3.95;;
8232;SDS011;4157;48.074;9.952;2022-11-14T17:08:54;5.80;;;2.45;;
8232;SDS011;4157;48.074;9.952;2022-11-14T17:11:40;4.82;;;2.35;;
8232;SDS011;4157;48.074;9.952;2022-11-14T17:14:29;3.95;;;2.08;;
8232;SDS011;4157;48.074;9.952;2022-11-14T17:17:15;4.32;;;2.40;;
8232;SDS011;4157;48.074;9.952;2022-11-14T17:20:02;4.53;;;1.88;;